Time;durP1;ratioP1;P1;durP2;ratioP2;P2;SDS_P1;SDS_P2;PMS_P1;PMS_P2;Temp;Humidity;BMP_temperature;BMP_pressure;BME280_temperature;BME280_humidity;BME280_pressure;Samples;Min_cycle;Max_cycle;Signal;HPM_P1;HPM_P2
2023/03/28 00:01:00;;;;;;;;;;;;;;;2.83;68.31;100793.13;1085070;54;19950;-80
2023/03/28 00:02:01;;;;;;;;;;;;;;;2.76;68.45;100796.97;1085364;54;19946;-79
2023/03/28 00:03:05;;;;;;;;;;;;;;;2.64;68.67;100793.16;1084747;54;20406;-80
2023/03/28 00:04:10;;;;;;;;;;;;;;;2.72;68.62;100798.06;1085305;54;19946;-80
2023/03/28 00:05:16;;;;;;;;;;;;;;;2.80;68.60;100798.53;1084958;54;19946;-79
2023/03/28 00:06:20;;;;;;;;;;;;;;;2.85;68.21;100801.78;1085020;54;19950;-80
2023/03/28 00:07:26;;;;;;;;;;;;;;;2.90;68.05;100798.91;1085011;54;19950;-80
2023/03/28 00:08:30;;;;;;;;;;;;;;;2.94;67.75;100796.06;1085182;39;20213;-80
2023/03/28 00:09:31;;;;;;;;;;;;;;;2.99;67.60;100797.63;1085229;54;19947;-80
2023/03/28 00:10:35;;;;;;;;;;;;;;;3.03;67.21;100797.38;1085266;54;19947;-79
2023/03/28 00:11:37;;;;;;;;;;;;;;;2.94;67.30;100798.69;1085034;54;19947;-80
2023/03/28 00:12:41;;;;;;;;;;;;;;;2.99;67.42;100800.25;1085127;54;19973;-80
2023/03/28 00:13:42;;;;;;;;;;;;;;;2.86;67.54;100803.50;1085095;54;19973;-80
2023/03/28 00:14:45;;;;;;;;;;;;;;;2.77;67.95;100803.97;1084954;54;20054;-80
2023/03/28 00:15:47;;;;;;;;;;;;;;;2.79;67.95;100807.38;1084737;47;19946;-80
2023/03/28 00:16:51;;;;;;;;;;;;;;;2.69;67.84;100811.41;1084624;54;19958;-80
2023/03/28 00:17:52;;;;;;;;;;;;;;;2.68;67.88;100809.69;1084426;54;19966;-80
2023/03/28 00:18:56;;;;;;;;;;;;;;;2.65;68.07;100811.56;1084587;54;19946;-79
2023/03/28 00:19:57;;;;;;;;;;;;;;;2.64;68.36;100820.44;1084342;54;19947;-79
2023/03/28 00:21:01;;;;;;;;;;;;;;;2.63;68.29;100815.22;1084733;54;19950;-81
2023/03/28 00:22:02;;;;;;;;;;;;;;;2.65;68.13;100805.44;1084601;54;19974;-80
2023/03/28 00:23:10;;;;;;;;;;;;;;;2.56;67.99;100812.00;1084520;54;19947;-80
2023/03/28 00:24:13;;;;;;;;;;;;;;;2.53;68.42;100814.81;1084474;54;19947;-80
2023/03/28 00:25:19;;;;;;;;;;;;;;;2.62;68.46;100813.50;1084344;54;19958;-80
2023/03/28 00:26:23;;;;;;;;;;;;;;;2.51;68.41;100819.31;1084099;54;19951;-83
2023/03/28 00:27:29;;;;;;;;;;;;;;;2.58;68.29;100818.06;1084775;39;20373;-80
2023/03/28 00:28:30;;;;;;;;;;;;;;;2.59;67.96;100817.16;1085082;54;19970;-79
2023/03/28 00:29:33;;;;;;;;;;;;;;;2.52;68.20;100820.16;1086034;39;20319;-78
2023/03/28 00:30:35;;;;;;;;;;;;;;;2.54;68.38;100815.66;1085751;54;19951;-80
2023/03/28 00:31:39;;;;;;;;;;;;;;;2.42;68.54;100825.88;1085712;54;19939;-78
2023/03/28 00:32:40;;;;;;;;;;;;;;;2.43;68.80;100826.75;1085470;54;19946;-80
2023/03/28 00:33:46;;;;;;;;;;;;;;;2.40;68.93;100821.59;1085157;39;20417;-79
2023/03/28 00:34:50;;;;;;;;;;;;;;;2.45;68.90;100830.16;1084736;54;19947;-80
2023/03/28 00:35:51;;;;;;;;;;;;;;;2.41;68.82;100823.31;1084900;54;19951;-79
2023/03/28 00:36:54;;;;;;;;;;;;;;;2.40;68.94;100829.50;1084843;54;19961;-79
2023/03/28 00:37:56;;;;;;;;;;;;;;;2.41;69.01;100836.50;1084972;54;19953;-78
2023/03/28 00:39:05;;;;;;;;;;;;;;;2.46;68.45;100831.84;1085656;54;19946;-79
2023/03/28 00:40:07;;;;;;;;;;;;;;;2.46;68.75;100835.38;1085489;54;20010;-79
2023/03/28 00:41:14;;;;;;;;;;;;;;;2.55;68.21;100831.41;1085391;54;20034;-81
2023/03/28 00:42:16;;;;;;;;;;;;;;;2.54;67.97;100835.00;1085567;54;19946;-80
2023/03/28 00:43:36;;;;;;;;;;;;;;;2.51;68.22;100840.41;1085420;54;19950;-80
2023/03/28 00:44:41;;;;;;;;;;;;;;;2.40;68.75;100834.78;1085313;54;19977;-79
2023/03/28 00:45:46;;;;;;;;;;;;;;;2.42;68.58;100841.69;1086141;39;20440;-81
2023/03/28 00:46:48;;;;;;;;;;;;;;;2.41;68.77;100842.63;1085552;54;19947;-80
2023/03/28 00:47:53;;;;;;;;;;;;;;;2.49;68.65;100842.28;1085776;54;20006;-80
2023/03/28 00:48:57;;;;;;;;;;;;;;;2.54;68.42;100835.00;1085481;54;19957;-80
2023/03/28 00:50:02;;;;;;;;;;;;;;;2.52;68.44;100841.25;1085591;54;20054;-81
2023/03/28 00:51:04;;;;;;;;;;;;;;;2.53;68.43;100846.50;1086384;39;20258;-80
2023/03/28 00:52:08;;;;;;;;;;;;;;;2.57;68.23;100845.41;1085969;54;19981;-80
2023/03/28 00:53:12;;;;;;;;;;;;;;;2.64;67.81;100845.97;1085860;54;19950;-80
2023/03/28 00:54:20;;;;;;;;;;;;;;;2.69;67.93;100836.06;1085941;54;19958;-80
2023/03/28 00:55:25;;;;;;;;;;;;;;;2.72;67.47;100838.53;1084904;54;19947;-80
2023/03/28 00:56:32;;;;;;;;;;;;;;;2.74;67.56;100833.19;1084648;54;20019;-80
2023/03/28 00:57:37;;;;;;;;;;;;;;;2.76;67.48;100840.09;1084971;54;19962;-79
2023/03/28 00:58:43;;;;;;;;;;;;;;;2.68;67.48;100838.75;1085404;54;19950;-79
2023/03/28 00:59:45;;;;;;;;;;;;;;;2.68;67.59;100838.75;1085450;54;19946;-80
2023/03/28 01:00:48;;;;;;;;;;;;;;;2.61;67.73;100839.06;1086462;54;19950;-80
2023/03/28 01:01:50;;;;;;;;;;;;;;;2.58;67.52;100841.00;1086417;54;19973;-79
2023/03/28 01:02:57;;;;;;;;;;;;;;;2.60;67.82;100836.47;1086311;54;20085;-80
2023/03/28 01:04:01;;;;;;;;;;;;;;;2.62;67.61;100831.97;1086321;54;19957;-80
2023/03/28 01:05:06;;;;;;;;;;;;;;;2.55;67.74;100836.69;1086216;54;19947;-80
2023/03/28 01:06:08;;;;;;;;;;;;;;;2.62;67.55;100837.25;1086002;54;19946;-80
2023/03/28 01:07:12;;;;;;;;;;;;;;;2.55;67.63;100834.03;1087205;46;19985;-81
2023/03/28 01:08:17;;;;;;;;;;;;;;;2.50;67.49;100846.63;1086495;54;19946;-80
2023/03/28 01:09:25;;;;;;;;;;;;;;;2.56;67.75;100846.31;1087434;39;20455;-80
2023/03/28 01:10:27;;;;;;;;;;;;;;;2.54;67.65;100847.34;1086861;54;19973;-81
2023/03/28 01:11:31;;;;;;;;;;;;;;;2.63;67.61;100837.19;1086736;54;19947;-81
2023/03/28 01:12:33;;;;;;;;;;;;;;;2.62;67.47;100851.31;1087059;39;20216;-81
2023/03/28 01:13:39;;;;;;;;;;;;;;;2.60;67.39;100845.25;1086897;54;19942;-81
2023/03/28 01:14:42;;;;;;;;;;;;;;;2.58;67.42;100841.81;1086832;54;19951;-81
2023/03/28 01:15:46;;;;;;;;;;;;;;;2.46;67.83;100845.03;1087110;54;20015;-82
2023/03/28 01:16:48;;;;;;;;;;;;;;;2.54;67.65;100848.19;1087141;54;19943;-82
2023/03/28 01:17:52;;;;;;;;;;;;;;;2.53;67.78;100843.84;1087036;54;19950;-80
2023/03/28 01:18:55;;;;;;;;;;;;;;;2.55;67.69;100835.84;1087565;46;19994;-82
2023/03/28 01:20:05;;;;;;;;;;;;;;;2.60;67.42;100836.47;1086966;54;19947;-80
2023/03/28 01:21:17;;;;;;;;;;;;;;;2.68;67.30;100842.25;1087314;46;19949;-82
2023/03/28 01:22:35;;;;;;;;;;;;;;;2.65;67.41;100845.88;1086766;54;19946;-80
2023/03/28 01:23:51;;;;;;;;;;;;;;;2.72;67.07;100846.44;1086497;54;20413;-80
2023/03/28 01:25:09;;;;;;;;;;;;;;;2.79;66.90;100852.28;1086143;54;20457;-82
2023/03/28 01:26:28;;;;;;;;;;;;;;;2.84;66.80;100849.41;1085414;39;20044;-81
2023/03/28 01:27:40;;;;;;;;;;;;;;;2.85;66.53;100843.22;1085998;54;20003;-80
2023/03/28 01:28:49;;;;;;;;;;;;;;;2.85;66.47;100845.84;1085964;54;19972;-81
2023/03/28 01:30:01;;;;;;;;;;;;;;;2.86;66.36;100848.41;1085663;54;19953;-81
2023/03/28 01:31:17;;;;;;;;;;;;;;;2.80;66.49;100852.19;1085857;54;19950;-81
2023/03/28 01:32:47;;;;;;;;;;;;;;;2.85;66.64;100849.34;1085776;54;20540;-81
2023/03/28 01:34:04;;;;;;;;;;;;;;;2.86;66.46;100845.75;1086292;39;20350;-81
2023/03/28 01:35:35;;;;;;;;;;;;;;;2.88;66.32;100854.47;1085953;54;19962;-81
2023/03/28 01:36:51;;;;;;;;;;;;;;;2.86;66.25;100855.50;1085435;54;19997;-81
2023/03/28 01:38:03;;;;;;;;;;;;;;;2.87;66.30;100854.56;1085510;47;19967;-81
2023/03/28 01:39:09;;;;;;;;;;;;;;;2.88;66.21;100854.47;1085267;54;19950;-81
2023/03/28 01:40:28;;;;;;;;;;;;;;;2.89;66.08;100855.31;1085311;54;20020;-80
2023/03/28 01:41:33;;;;;;;;;;;;;;;2.75;66.33;100856.88;1085657;54;19947;-81
2023/03/28 01:42:41;;;;;;;;;;;;;;;2.80;66.42;100856.63;1085656;54;19946;-81
2023/03/28 01:43:45;;;;;;;;;;;;;;;2.87;66.22;100857.19;1085719;54;19947;-81
2023/03/28 01:44:54;;;;;;;;;;;;;;;2.75;66.18;100854.22;1085444;54;19946;-81
2023/03/28 01:46:00;;;;;;;;;;;;;;;2.82;66.26;100857.44;1085500;54;19974;-81
2023/03/28 01:47:09;;;;;;;;;;;;;;;2.86;66.08;100851.06;1085990;54;19950;-82
2023/03/28 01:48:14;;;;;;;;;;;;;;;2.87;66.18;100863.31;1085949;54;19947;-81
2023/03/28 01:49:23;;;;;;;;;;;;;;;2.88;66.02;100861.56;1085614;54;20517;-81
2023/03/28 01:50:26;;;;;;;;;;;;;;;2.88;66.01;100862.41;1085854;54;19970;-80
2023/03/28 01:51:37;;;;;;;;;;;;;;;2.92;66.01;100861.34;1086355;39;20479;-81
2023/03/28 01:52:40;;;;;;;;;;;;;;;2.90;65.93;100862.31;1085680;54;19946;-80
2023/03/28 01:53:48;;;;;;;;;;;;;;;2.92;66.16;100861.34;1086564;31;20552;-81
2023/03/28 01:54:54;;;;;;;;;;;;;;;2.81;66.05;100859.19;1085767;54;19957;-81
2023/03/28 01:56:02;;;;;;;;;;;;;;;2.62;66.00;100867.16;1085997;47;20053;-81
2023/03/28 01:57:09;;;;;;;;;;;;;;;2.52;66.55;100863.25;1085919;54;19946;-81
2023/03/28 01:58:15;;;;;;;;;;;;;;;2.45;66.91;100867.13;1085811;54;19954;-81
2023/03/28 01:59:18;;;;;;;;;;;;;;;2.37;67.09;100866.59;1085929;54;19950;-80
2023/03/28 02:00:23;;;;;;;;;;;;;;;2.41;67.29;100869.03;1085878;39;20821;-79
2023/03/28 02:01:29;;;;;;;;;;;;;;;2.32;67.53;100867.69;1085374;54;19950;-81
2023/03/28 02:02:35;;;;;;;;;;;;;;;2.21;67.71;100866.47;1085777;54;19952;-80
2023/03/28 02:03:38;;;;;;;;;;;;;;;2.23;67.79;100873.38;1085684;54;19946;-79
2023/03/28 02:04:44;;;;;;;;;;;;;;;2.25;67.75;100871.53;1085944;54;19970;-83
2023/03/28 02:05:46;;;;;;;;;;;;;;;2.28;67.96;100865.25;1086093;54;20018;-80
2023/03/28 02:06:51;;;;;;;;;;;;;;;2.22;68.12;100871.69;1086204;54;19951;-81
2023/03/28 02:07:53;;;;;;;;;;;;;;;2.24;68.14;100869.81;1086123;54;19950;-81
2023/03/28 02:09:00;;;;;;;;;;;;;;;2.18;68.25;100872.72;1086076;54;19951;-81
2023/03/28 02:10:03;;;;;;;;;;;;;;;2.16;68.11;100872.81;1085903;54;19946;-79
2023/03/28 02:11:07;;;;;;;;;;;;;;;2.26;68.10;100867.09;1087117;39;20327;-80
2023/03/28 02:12:11;;;;;;;;;;;;;;;2.29;68.16;100862.53;1085163;46;19958;-79
2023/03/28 02:13:17;;;;;;;;;;;;;;;2.25;67.78;100868.91;1084827;54;19950;-80
2023/03/28 02:14:19;;;;;;;;;;;;;;;2.23;67.88;100868.13;1084539;54;19950;-80
2023/03/28 02:15:24;;;;;;;;;;;;;;;2.21;68.05;100875.25;1084883;54;19950;-80
2023/03/28 02:16:26;;;;;;;;;;;;;;;2.22;68.24;100876.94;1084383;54;19954;-81
2023/03/28 02:17:31;;;;;;;;;;;;;;;2.17;68.23;100876.31;1084846;54;19947;-81
2023/03/28 02:18:33;;;;;;;;;;;;;;;2.18;68.09;100870.09;1084583;54;20073;-81
2023/03/28 02:19:39;;;;;;;;;;;;;;;2.18;68.09;100876.25;1085216;39;20373;-81
2023/03/28 02:20:42;;;;;;;;;;;;;;;2.17;68.44;100868.41;1085287;54;19969;-80
2023/03/28 02:21:49;;;;;;;;;;;;;;;2.11;68.29;100874.81;1088036;39;20368;-82
2023/03/28 02:22:52;;;;;;;;;;;;;;;2.20;68.21;100873.53;1085668;54;19946;-81
2023/03/28 02:23:57;;;;;;;;;;;;;;;2.16;68.34;100866.69;1086291;54;19950;-82
2023/03/28 02:25:01;;;;;;;;;;;;;;;2.16;68.10;100877.25;1086267;54;19973;-82
2023/03/28 02:26:05;;;;;;;;;;;;;;;2.18;68.09;100870.09;1087548;39;20180;-80
2023/03/28 02:27:07;;;;;;;;;;;;;;;2.15;68.10;100876.38;1087472;39;20195;-81
2023/03/28 02:28:11;;;;;;;;;;;;;;;2.19;67.91;100877.09;1086596;54;19943;-81
2023/03/28 02:29:13;;;;;;;;;;;;;;;2.24;68.08;100874.22;1087555;39;20220;-81
2023/03/28 02:30:17;;;;;;;;;;;;;;;2.21;68.19;100872.59;1086791;54;19950;-82
2023/03/28 02:31:20;;;;;;;;;;;;;;;2.24;68.02;100874.22;1086556;54;19951;-81
2023/03/28 02:32:23;;;;;;;;;;;;;;;2.17;67.96;100868.41;1086861;54;19951;-81
2023/03/28 02:33:31;;;;;;;;;;;;;;;2.21;68.07;100867.31;1086713;54;19950;-82
2023/03/28 02:34:35;;;;;;;;;;;;;;;2.11;68.24;100869.53;1086730;54;19951;-83
2023/03/28 02:35:44;;;;;;;;;;;;;;;2.14;68.41;100873.81;1087317;39;20471;-81
2023/03/28 02:36:52;;;;;;;;;;;;;;;2.12;68.36;100870.38;1086319;54;20026;-81
2023/03/28 02:37:57;;;;;;;;;;;;;;;2.14;68.23;100879.09;1087187;54;19957;-82
2023/03/28 02:39:06;;;;;;;;;;;;;;;2.14;68.26;100872.00;1087283;39;20152;-82
2023/03/28 02:40:20;;;;;;;;;;;;;;;2.15;67.93;100872.88;1087159;54;19943;-82
2023/03/28 02:41:26;;;;;;;;;;;;;;;2.16;67.93;100871.97;1087038;54;19938;-82
2023/03/28 02:42:34;;;;;;;;;;;;;;;2.15;68.23;100870.25;1087060;54;19942;-83
2023/03/28 02:43:47;;;;;;;;;;;;;;;2.14;68.58;100877.28;1087521;46;19942;-82
2023/03/28 02:44:57;;;;;;;;;;;;;;;2.13;68.42;100878.22;1087146;46;19966;-81
2023/03/28 02:46:10;;;;;;;;;;;;;;;2.10;68.58;100874.88;1088483;39;20574;-80
2023/03/28 02:47:15;;;;;;;;;;;;;;;2.05;68.74;100875.06;1088033;39;20335;-81
2023/03/28 02:48:27;;;;;;;;;;;;;;;1.99;68.62;100873.56;1087422;46;19939;-81
2023/03/28 02:49:36;;;;;;;;;;;;;;;2.02;68.90;100883.16;1087584;46;19942;-82
2023/03/28 02:50:45;;;;;;;;;;;;;;;2.02;68.75;100875.25;1088367;46;19958;-82
2023/03/28 02:51:50;;;;;;;;;;;;;;;2.03;68.58;100876.94;1090069;46;19957;-83
2023/03/28 02:52:57;;;;;;;;;;;;;;;2.05;68.74;100880.34;1087666;54;20297;-81
2023/03/28 02:54:03;;;;;;;;;;;;;;;2.02;68.55;100873.44;1091967;39;20613;-81
2023/03/28 02:55:14;;;;;;;;;;;;;;;2.00;68.80;100882.34;1092208;39;20261;-80
2023/03/28 02:56:20;;;;;;;;;;;;;;;2.05;68.58;100871.59;1089039;46;19947;-81
2023/03/28 02:57:27;;;;;;;;;;;;;;;2.07;68.64;100882.94;1087793;46;19950;-82
2023/03/28 02:58:33;;;;;;;;;;;;;;;2.05;68.55;100876.88;1087469;54;20030;-81
2023/03/28 02:59:42;;;;;;;;;;;;;;;2.00;68.70;100877.91;1085849;54;19957;-80
2023/03/28 03:00:43;;;;;;;;;;;;;;;2.01;69.08;100884.06;1086244;54;19974;-82
2023/03/28 03:01:47;;;;;;;;;;;;;;;2.02;69.20;100875.25;1086255;54;20508;-81
2023/03/28 03:02:50;;;;;;;;;;;;;;;2.00;69.37;100883.19;1085816;54;19943;-81
2023/03/28 03:03:54;;;;;;;;;;;;;;;2.00;69.55;100877.91;1084265;54;19946;-80
2023/03/28 03:04:56;;;;;;;;;;;;;;;1.97;69.36;100883.34;1084520;54;20532;-79
2023/03/28 03:06:00;;;;;;;;;;;;;;;1.98;69.62;100879.78;1083430;54;19951;-80
2023/03/28 03:07:01;;;;;;;;;;;;;;;1.98;69.64;100881.56;1084044;54;19946;-81
2023/03/28 03:08:05;;;;;;;;;;;;;;;1.97;69.80;100882.47;1083941;54;20442;-80
2023/03/28 03:09:07;;;;;;;;;;;;;;;1.98;69.59;100878.91;1083539;54;19970;-79
2023/03/28 03:10:15;;;;;;;;;;;;;;;1.96;69.65;100879.00;1085208;46;19950;-79
2023/03/28 03:11:23;;;;;;;;;;;;;;;1.96;69.99;100881.63;1084905;54;19954;-80
2023/03/28 03:12:27;;;;;;;;;;;;;;;1.95;69.81;100879.94;1084594;39;20337;-80
2023/03/28 03:13:28;;;;;;;;;;;;;;;1.96;69.93;100875.50;1083163;54;19969;-79
2023/03/28 03:14:33;;;;;;;;;;;;;;;1.94;69.96;100875.56;1083243;54;19946;-79
2023/03/28 03:15:34;;;;;;;;;;;;;;;1.94;69.98;100872.94;1083312;54;19946;-81
2023/03/28 03:16:38;;;;;;;;;;;;;;;1.95;70.25;100871.13;1083508;54;20506;-79
2023/03/28 03:17:39;;;;;;;;;;;;;;;1.96;69.94;100873.72;1083374;54;19956;-80
2023/03/28 03:18:43;;;;;;;;;;;;;;;1.96;70.04;100875.50;1083637;54;19946;-80
2023/03/28 03:19:44;;;;;;;;;;;;;;;1.93;70.31;100871.22;1083434;54;19950;-80
2023/03/28 03:20:49;;;;;;;;;;;;;;;1.95;69.96;100877.28;1083517;54;19958;-80
2023/03/28 03:21:50;;;;;;;;;;;;;;;1.91;70.37;100870.44;1083582;54;19970;-80
2023/03/28 03:22:54;;;;;;;;;;;;;;;1.93;70.47;100871.22;1083968;54;19946;-80
2023/03/28 03:23:55;;;;;;;;;;;;;;;1.97;70.20;100875.44;1083931;54;19958;-82
2023/03/28 03:25:03;;;;;;;;;;;;;;;1.99;70.45;100878.84;1084606;54;19973;-80
2023/03/28 03:26:07;;;;;;;;;;;;;;;1.96;70.40;100876.38;1083447;54;19947;-81
2023/03/28 03:27:11;;;;;;;;;;;;;;;1.97;69.92;100877.22;1083406;54;19981;-78
2023/03/28 03:28:15;;;;;;;;;;;;;;;1.96;69.81;100880.78;1085324;54;20030;-81
2023/03/28 03:29:16;;;;;;;;;;;;;;;1.96;70.02;100864.94;1085873;54;20439;-81
2023/03/28 03:30:20;;;;;;;;;;;;;;;1.95;70.06;100879.06;1086131;54;19947;-81
2023/03/28 03:31:22;;;;;;;;;;;;;;;1.95;70.20;100881.69;1085760;54;19957;-80
2023/03/28 03:32:25;;;;;;;;;;;;;;;1.95;70.28;100884.31;1084529;54;20520;-81
2023/03/28 03:33:26;;;;;;;;;;;;;;;1.94;70.25;100878.22;1084276;54;19946;-80
2023/03/28 03:34:32;;;;;;;;;;;;;;;1.94;70.19;100878.22;1083940;54;19969;-81
2023/03/28 03:35:34;;;;;;;;;;;;;;;1.93;70.40;100876.50;1084495;54;19950;-80
2023/03/28 03:36:39;;;;;;;;;;;;;;;1.97;70.25;100883.34;1084063;54;19946;-80
2023/03/28 03:37:40;;;;;;;;;;;;;;;2.01;69.98;100878.78;1084048;54;19950;-80
2023/03/28 03:38:44;;;;;;;;;;;;;;;2.07;69.51;100867.13;1085244;54;19970;-80
2023/03/28 03:39:45;;;;;;;;;;;;;;;2.07;69.64;100872.38;1086007;46;20502;-80
2023/03/28 03:40:49;;;;;;;;;;;;;;;2.06;69.50;100878.59;1086556;46;19969;-81
2023/03/28 03:41:50;;;;;;;;;;;;;;;2.04;69.59;100873.34;1085967;54;20512;-79
2023/03/28 03:42:56;;;;;;;;;;;;;;;2.10;69.43;100878.38;1085781;54;19997;-80
2023/03/28 03:43:57;;;;;;;;;;;;;;;2.18;69.16;100876.25;1085736;54;20303;-81
2023/03/28 03:45:01;;;;;;;;;;;;;;;2.21;68.80;100875.25;1087144;39;20261;-81
2023/03/28 03:46:02;;;;;;;;;;;;;;;2.23;68.98;100878.66;1086499;54;19955;-81
2023/03/28 03:47:06;;;;;;;;;;;;;;;2.24;69.08;100875.09;1086065;46;19958;-80
2023/03/28 03:48:07;;;;;;;;;;;;;;;2.29;68.79;100878.38;1085053;54;20173;-82
2023/03/28 03:49:11;;;;;;;;;;;;;;;2.24;68.92;100883.03;1086922;39;20349;-81
2023/03/28 03:50:12;;;;;;;;;;;;;;;2.14;69.26;100879.09;1086665;54;19957;-82
2023/03/28 03:51:16;;;;;;;;;;;;;;;2.08;69.48;100879.38;1085112;54;19953;-82
2023/03/28 03:52:17;;;;;;;;;;;;;;;2.06;69.60;100879.44;1085260;54;19977;-81
2023/03/28 03:53:21;;;;;;;;;;;;;;;1.99;69.74;100881.47;1085682;54;19962;-82
2023/03/28 03:54:22;;;;;;;;;;;;;;;1.94;70.25;100882.63;1086139;39;20045;-81
2023/03/28 03:55:26;;;;;;;;;;;;;;;1.89;70.38;100880.19;1085160;54;20002;-80
2023/03/28 03:56:27;;;;;;;;;;;;;;;1.83;70.64;100877.81;1084921;54;19947;-80
2023/03/28 03:57:30;;;;;;;;;;;;;;;1.84;70.72;100877.75;1084982;54;20006;-83
2023/03/28 03:58:35;;;;;;;;;;;;;;;1.83;70.60;100878.69;1084916;54;19958;-81
2023/03/28 03:59:38;;;;;;;;;;;;;;;1.84;70.62;100879.53;1084450;54;20738;-80
2023/03/28 04:00:39;;;;;;;;;;;;;;;1.81;70.63;100877.91;1084060;54;19958;-81
2023/03/28 04:01:43;;;;;;;;;;;;;;;1.80;70.66;100881.47;1084769;54;19950;-82
2023/03/28 04:02:45;;;;;;;;;;;;;;;1.76;70.67;100876.41;1083472;54;19947;-81
2023/03/28 04:03:50;;;;;;;;;;;;;;;1.79;70.60;100885.03;1085388;54;19953;-80
2023/03/28 04:04:52;;;;;;;;;;;;;;;1.79;70.60;100878.91;1085054;54;19946;-79
2023/03/28 04:05:58;;;;;;;;;;;;;;;1.77;70.57;100884.22;1085289;54;20468;-77
2023/03/28 04:07:01;;;;;;;;;;;;;;;1.74;70.84;100883.50;1086445;54;19955;-78
2023/03/28 04:08:05;;;;;;;;;;;;;;;1.68;70.84;100877.59;1086940;54;19957;-80
2023/03/28 04:09:06;;;;;;;;;;;;;;;1.70;70.80;100881.00;1086862;54;19965;-80
2023/03/28 04:10:11;;;;;;;;;;;;;;;1.73;70.79;100880.03;1086703;54;19943;-79
2023/03/28 04:11:12;;;;;;;;;;;;;;;1.79;70.83;100885.03;1087284;46;19973;-82
2023/03/28 04:12:15;;;;;;;;;;;;;;;1.81;70.66;100883.19;1085664;54;19953;-83
2023/03/28 04:13:16;;;;;;;;;;;;;;;1.87;70.37;100887.31;1086711;54;19942;-81
2023/03/28 04:14:23;;;;;;;;;;;;;;;1.92;70.05;100890.59;1085839;54;19950;-84
2023/03/28 04:15:24;;;;;;;;;;;;;;;1.96;69.73;100883.41;1086450;54;19947;-81
2023/03/28 04:16:28;;;;;;;;;;;;;;;1.98;69.49;100887.72;1086634;54;19943;-82
2023/03/28 04:17:33;;;;;;;;;;;;;;;2.02;69.72;100888.44;1087493;39;20441;-82
2023/03/28 04:18:37;;;;;;;;;;;;;;;2.05;69.63;100887.41;1086226;54;19950;-81
2023/03/28 04:19:39;;;;;;;;;;;;;;;2.06;69.14;100883.88;1087241;46;20650;-81
2023/03/28 04:20:43;;;;;;;;;;;;;;;2.02;68.99;100891.91;1086329;54;20016;-78
2023/03/28 04:21:46;;;;;;;;;;;;;;;1.97;69.25;100888.63;1086840;54;19946;-79
2023/03/28 04:22:52;;;;;;;;;;;;;;;1.98;69.34;100890.34;1086405;54;19953;-79
2023/03/28 04:23:54;;;;;;;;;;;;;;;1.98;69.42;100892.97;1086353;54;19962;-79
2023/03/28 04:25:00;;;;;;;;;;;;;;;1.95;69.74;100889.59;1086094;54;19969;-80
2023/03/28 04:26:01;;;;;;;;;;;;;;;1.93;69.55;100891.47;1085707;54;20524;-80
2023/03/28 04:27:08;;;;;;;;;;;;;;;1.92;69.63;100892.41;1085946;54;19950;-81
2023/03/28 04:28:09;;;;;;;;;;;;;;;1.94;69.85;100893.16;1086519;54;19943;-82
2023/03/28 04:29:13;;;;;;;;;;;;;;;1.94;69.51;100891.41;1089443;39;20188;-80
2023/03/28 04:30:20;;;;;;;;;;;;;;;1.99;69.51;100892.03;1086528;54;20516;-83
2023/03/28 04:31:27;;;;;;;;;;;;;;;2.04;69.43;100899.75;1087333;46;19950;-81
2023/03/28 04:32:28;;;;;;;;;;;;;;;2.08;69.28;100898.69;1086738;54;20342;-81
2023/03/28 04:33:33;;;;;;;;;;;;;;;2.12;69.00;100900.28;1086519;54;19957;-80
2023/03/28 04:34:34;;;;;;;;;;;;;;;2.14;68.98;100903.69;1086978;54;20634;-82
2023/03/28 04:35:37;;;;;;;;;;;;;;;2.17;68.76;100907.97;1086987;46;19942;-83
2023/03/28 04:36:39;;;;;;;;;;;;;;;2.18;68.74;100907.91;1086286;54;19945;-84
2023/03/28 04:37:46;;;;;;;;;;;;;;;2.21;68.46;100909.53;1085945;54;20030;-78
2023/03/28 04:38:48;;;;;;;;;;;;;;;2.21;68.42;100901.63;1086971;54;19943;-79
2023/03/28 04:39:52;;;;;;;;;;;;;;;2.23;68.48;100902.41;1087077;54;19950;-79
2023/03/28 04:40:56;;;;;;;;;;;;;;;2.17;68.09;100911.47;1087616;46;19962;-79
2023/03/28 04:42:00;;;;;;;;;;;;;;;2.24;68.17;100913.81;1087064;46;19946;-79
2023/03/28 04:43:01;;;;;;;;;;;;;;;2.16;68.35;100909.75;1087461;46;19957;-79
2023/03/28 04:44:05;;;;;;;;;;;;;;;2.12;68.62;100912.59;1087260;46;19943;-79
2023/03/28 04:45:07;;;;;;;;;;;;;;;2.03;68.97;100908.59;1087020;54;19951;-79
2023/03/28 04:46:13;;;;;;;;;;;;;;;1.95;69.06;100918.63;1086870;54;20011;-79
2023/03/28 04:47:14;;;;;;;;;;;;;;;1.92;69.83;100921.41;1087336;39;20479;-79
2023/03/28 04:48:18;;;;;;;;;;;;;;;1.94;69.15;100917.78;1087617;46;20002;-79
2023/03/28 04:49:20;;;;;;;;;;;;;;;1.97;69.05;100925.56;1086596;54;19951;-79
2023/03/28 04:50:24;;;;;;;;;;;;;;;2.02;68.86;100914.81;1086193;46;20002;-80
2023/03/28 04:51:27;;;;;;;;;;;;;;;1.95;68.79;100921.25;1086980;54;19954;-79
2023/03/28 04:52:31;;;;;;;;;;;;;;;1.93;68.75;100926.59;1086543;54;20643;-79
2023/03/28 04:53:32;;;;;;;;;;;;;;;1.94;69.05;100928.31;1087053;54;19938;-79
2023/03/28 04:54:35;;;;;;;;;;;;;;;1.89;69.23;100925.00;1086966;54;20007;-79
2023/03/28 04:55:37;;;;;;;;;;;;;;;1.98;68.96;100923.75;1087210;39;20219;-79
2023/03/28 04:56:44;;;;;;;;;;;;;;;2.02;68.86;100928.00;1087364;46;19942;-79
2023/03/28 04:57:48;;;;;;;;;;;;;;;2.08;68.89;100929.50;1087057;54;19966;-79
2023/03/28 04:58:49;;;;;;;;;;;;;;;2.12;68.67;100917.88;1087442;46;19943;-80
2023/03/28 04:59:53;;;;;;;;;;;;;;;2.14;68.30;100926.56;1086978;54;19943;-79
2023/03/28 05:00:54;;;;;;;;;;;;;;;2.16;68.13;100930.00;1088915;46;19938;-79
2023/03/28 05:02:00;;;;;;;;;;;;;;;2.18;68.20;100934.28;1086954;54;19950;-79
2023/03/28 05:03:03;;;;;;;;;;;;;;;2.20;68.11;100936.84;1086681;54;19942;-79
2023/03/28 05:04:07;;;;;;;;;;;;;;;2.18;68.11;100930.78;1086831;54;19965;-79
2023/03/28 05:05:08;;;;;;;;;;;;;;;2.14;68.38;100929.22;1086993;54;20183;-79
2023/03/28 05:06:12;;;;;;;;;;;;;;;2.06;68.65;100941.91;1087091;54;19942;-79
2023/03/28 05:07:13;;;;;;;;;;;;;;;2.01;68.63;100942.94;1087203;54;19942;-80
2023/03/28 05:08:18;;;;;;;;;;;;;;;1.96;68.99;100941.44;1087111;54;19950;-80
2023/03/28 05:09:21;;;;;;;;;;;;;;;2.02;68.80;100943.81;1087676;46;19954;-80
2023/03/28 05:10:25;;;;;;;;;;;;;;;2.10;68.69;100943.47;1087094;54;19943;-80
2023/03/28 05:11:29;;;;;;;;;;;;;;;2.07;68.34;100946.25;1088325;39;20142;-80
2023/03/28 05:12:31;;;;;;;;;;;;;;;2.13;68.50;100948.59;1087048;54;19962;-79
2023/03/28 05:13:34;;;;;;;;;;;;;;;2.16;68.33;100945.84;1087090;54;19938;-79
2023/03/28 05:14:36;;;;;;;;;;;;;;;1.98;68.40;100943.09;1087425;46;19995;-79
2023/03/28 05:15:41;;;;;;;;;;;;;;;1.97;68.44;100944.03;1086923;54;19939;-79
2023/03/28 05:16:42;;;;;;;;;;;;;;;1.96;68.89;100944.94;1087420;46;19942;-79
2023/03/28 05:17:48;;;;;;;;;;;;;;;1.92;69.13;100945.97;1086988;54;19965;-79
2023/03/28 05:18:50;;;;;;;;;;;;;;;1.95;68.97;100939.72;1086918;54;19947;-79
2023/03/28 05:19:53;;;;;;;;;;;;;;;1.93;68.88;100944.22;1086770;54;19990;-79
2023/03/28 05:20:57;;;;;;;;;;;;;;;1.94;68.99;100949.41;1086895;54;20300;-79
2023/03/28 05:21:58;;;;;;;;;;;;;;;1.96;69.16;100944.06;1086756;54;20280;-79
2023/03/28 05:23:02;;;;;;;;;;;;;;;2.01;69.12;100947.38;1086886;54;19958;-79
2023/03/28 05:24:05;;;;;;;;;;;;;;;2.05;68.56;100943.66;1086955;54;19998;-80
2023/03/28 05:25:09;;;;;;;;;;;;;;;2.02;68.73;100942.03;1087027;54;19950;-79
2023/03/28 05:26:10;;;;;;;;;;;;;;;2.06;68.82;100949.81;1086868;54;20026;-80
2023/03/28 05:27:14;;;;;;;;;;;;;;;1.96;69.29;100949.34;1086838;54;19942;-78
2023/03/28 05:28:15;;;;;;;;;;;;;;;1.84;69.58;100950.75;1086889;54;19951;-79
2023/03/28 05:29:19;;;;;;;;;;;;;;;1.83;69.59;100954.28;1086873;54;19950;-80
2023/03/28 05:30:20;;;;;;;;;;;;;;;1.81;69.59;100961.41;1086287;54;19970;-80
2023/03/28 05:31:27;;;;;;;;;;;;;;;1.80;69.73;100964.97;1089135;39;20463;-79
2023/03/28 05:32:28;;;;;;;;;;;;;;;1.76;69.92;100968.66;1086755;54;20038;-79
2023/03/28 05:33:34;;;;;;;;;;;;;;;1.78;70.18;100969.47;1086682;54;19954;-79
2023/03/28 05:34:35;;;;;;;;;;;;;;;1.77;70.09;100970.38;1086679;54;19942;-80
2023/03/28 05:35:39;;;;;;;;;;;;;;;1.70;70.38;100975.91;1086303;54;19943;-79
2023/03/28 05:36:40;;;;;;;;;;;;;;;1.68;70.57;100980.41;1086182;54;20027;-79
2023/03/28 05:37:44;;;;;;;;;;;;;;;1.69;70.54;100971.59;1086274;54;19954;-79